Time;durP1;ratioP1;P1;durP2;ratioP2;P2;SDS_P1;SDS_P2;PMS_P1;PMS_P2;Temp;Humidity;BMP_temperature;BMP_pressure;BME280_temperature;BME280_humidity;BME280_pressure;Samples;Min_cycle;Max_cycle;Signal;HPM_P1;HPM_P2
2023/05/08 00:01:09;;;;;;;41.80;38.40;;;11.40;99.90;;;;;;5311029;27;20374;-72
2023/05/08 00:03:40;;;;;;;40.08;36.80;;;11.30;99.90;;;;;;5311196;27;20474;-73
2023/05/08 00:06:11;;;;;;;40.20;36.88;;;11.20;99.90;;;;;;5311098;27;20012;-73
2023/05/08 00:08:41;;;;;;;36.72;33.78;;;11.40;99.90;;;;;;5311004;27;20023;-72
2023/05/08 00:11:13;;;;;;;37.78;35.03;;;11.20;99.90;;;;;;5310744;27;20023;-72
2023/05/08 00:13:44;;;;;;;35.30;32.70;;;11.20;99.90;;;;;;5309436;27;20391;-74
2023/05/08 00:16:14;;;;;;;36.15;33.33;;;11.20;99.90;;;;;;5309910;27;20103;-74
2023/05/08 00:18:46;;;;;;;34.50;31.50;;;11.00;99.90;;;;;;5310929;27;20395;-73
2023/05/08 00:21:17;;;;;;;33.05;30.45;;;11.00;99.90;;;;;;5310534;27;20104;-73
2023/05/08 00:23:47;;;;;;;34.63;31.75;;;10.90;99.90;;;;;;5310293;27;20051;-74
2023/05/08 00:26:19;;;;;;;33.13;30.67;;;11.00;99.90;;;;;;5309400;27;20042;-73
2023/05/08 00:28:50;;;;;;;33.55;30.80;;;10.90;99.90;;;;;;5309242;27;20474;-72
2023/05/08 00:31:21;;;;;;;36.13;32.88;;;10.90;99.90;;;;;;5310447;27;20072;-73
2023/05/08 00:33:52;;;;;;;34.38;31.90;;;10.70;99.90;;;;;;5309076;27;20071;-72
2023/05/08 00:36:22;;;;;;;36.08;33.35;;;10.50;99.90;;;;;;5310413;27;20362;-73
2023/05/08 00:38:53;;;;;;;32.55;29.77;;;10.50;99.90;;;;;;5310276;27;20027;-72
2023/05/08 00:41:24;;;;;;;29.55;26.95;;;10.30;99.90;;;;;;5310070;27;20474;-74
2023/05/08 00:43:55;;;;;;;31.70;29.20;;;10.50;99.90;;;;;;5310204;27;20026;-73
2023/05/08 00:46:26;;;;;;;32.22;29.35;;;10.40;99.90;;;;;;5308878;27;20019;-72
2023/05/08 00:48:57;;;;;;;30.77;28.27;;;10.60;99.90;;;;;;5310266;27;20447;-72
2023/05/08 00:51:29;;;;;;;32.15;29.55;;;10.50;99.90;;;;;;5310069;27;20035;-72
2023/05/08 00:53:59;;;;;;;29.95;27.48;;;10.70;99.90;;;;;;5310510;27;20532;-73
2023/05/08 00:56:33;;;;;;;33.35;30.70;;;10.80;99.90;;;;;;5310252;27;20028;-74
2023/05/08 00:59:08;;;;;;;38.30;35.17;;;10.80;99.90;;;;;;5310233;27;20028;-73
2023/05/08 01:01:40;;;;;;;35.85;32.88;;;10.70;99.90;;;;;;5310476;27;20037;-73
2023/05/08 01:04:11;;;;;;;45.47;41.65;;;10.80;99.90;;;;;;5310257;27;20141;-73
2023/05/08 01:06:42;;;;;;;48.53;44.05;;;10.60;99.90;;;;;;5309198;27;20479;-72
2023/05/08 01:09:12;;;;;;;45.05;40.95;;;10.50;99.90;;;;;;5310360;27;20023;-72
2023/05/08 01:12:16;;;;;;;52.38;47.15;;;10.70;99.90;;;;;;5308863;27;20377;-73
2023/05/08 01:14:52;;;;;;;43.83;39.65;;;10.70;99.90;;;;;;5301640;27;20076;-72
2023/05/08 01:18:02;;;;;;;39.83;36.50;;;10.50;99.90;;;;;;5309881;27;20359;-72
2023/05/08 01:20:45;;;;;;;35.47;32.60;;;10.30;99.90;;;;;;5309690;27;20038;-73
2023/05/08 01:23:37;;;;;;;34.53;31.63;;;10.50;99.90;;;;;;5309631;27;20039;-73
2023/05/08 01:26:08;;;;;;;31.05;28.50;;;10.10;99.90;;;;;;5309788;27;20047;-72
2023/05/08 01:28:51;;;;;;;30.02;27.70;;;10.20;99.90;;;;;;5312730;27;20093;-72
2023/05/08 01:31:57;;;;;;;28.90;26.50;;;10.20;99.90;;;;;;5312715;27;20084;-73
2023/05/08 01:34:32;;;;;;;31.35;29.05;;;10.00;99.90;;;;;;5306298;27;20039;-72
2023/05/08 01:37:07;;;;;;;26.83;24.85;;;10.00;99.90;;;;;;5313969;27;20064;-73
2023/05/08 01:39:42;;;;;;;29.58;27.38;;;9.70;99.90;;;;;;5313928;27;20027;-72
2023/05/08 01:42:38;;;;;;;29.27;26.77;;;9.80;99.90;;;;;;5312503;27;20027;-74
2023/05/08 01:45:22;;;;;;;27.63;25.42;;;10.30;99.90;;;;;;5280846;27;20039;-72
2023/05/08 01:48:19;;;;;;;29.67;27.40;;;10.40;99.90;;;;;;5312649;27;20118;-74
2023/05/08 01:51:10;;;;;;;31.60;29.05;;;10.10;99.90;;;;;;5312226;27;20031;-74
2023/05/08 01:53:46;;;;;;;29.60;27.27;;;10.00;99.90;;;;;;5312355;27;20042;-73
2023/05/08 01:56:22;;;;;;;29.25;26.60;;;9.60;99.90;;;;;;5313711;27;20019;-73
2023/05/08 01:58:55;;;;;;;27.77;25.42;;;9.40;99.90;;;;;;5312344;27;20517;-72
2023/05/08 02:01:28;;;;;;;30.90;27.65;;;9.50;99.90;;;;;;5313578;27;20035;-74
2023/05/08 02:04:00;;;;;;;31.27;28.10;;;9.80;99.90;;;;;;5313458;27;20015;-72
2023/05/08 02:06:32;;;;;;;29.08;26.27;;;9.60;99.90;;;;;;5313463;27;20039;-73
2023/05/08 02:09:05;;;;;;;30.80;28.20;;;9.60;99.90;;;;;;5311985;27;20471;-72
2023/05/08 02:11:40;;;;;;;33.78;30.48;;;9.90;99.90;;;;;;5313160;27;20102;-74
2023/05/08 02:14:12;;;;;;;58.28;31.95;;;9.50;99.90;;;;;;5313329;27;20035;-72
2023/05/08 02:16:45;;;;;;;35.10;31.88;;;9.20;99.90;;;;;;5312337;27;20041;-73
2023/05/08 02:19:17;;;;;;;32.55;29.15;;;9.60;99.90;;;;;;5313278;27;20054;-72
2023/05/08 02:21:49;;;;;;;37.33;33.70;;;9.70;99.90;;;;;;5313082;27;20038;-72
2023/05/08 02:24:22;;;;;;;61.85;46.67;;;9.60;99.90;;;;;;5312763;27;20541;-73
2023/05/08 02:26:56;;;;;;;55.67;42.35;;;9.70;99.90;;;;;;5313014;27;20102;-73
2023/05/08 02:29:28;;;;;;;54.22;37.42;;;9.30;99.90;;;;;;5311724;27;20031;-74
2023/05/08 02:32:01;;;;;;;50.08;36.95;;;9.40;99.90;;;;;;5312906;27;20130;-73
2023/05/08 02:34:32;;;;;;;78.03;37.90;;;9.50;99.90;;;;;;5312801;27;20027;-72
2023/05/08 02:37:04;;;;;;;39.95;36.45;;;9.20;99.90;;;;;;5312743;27;20024;-73
2023/05/08 02:39:37;;;;;;;42.35;35.40;;;9.50;99.90;;;;;;5310504;27;20076;-74
2023/05/08 02:42:08;;;;;;;43.33;33.53;;;9.30;99.90;;;;;;5310935;27;20476;-73
2023/05/08 02:44:39;;;;;;;38.65;32.60;;;9.30;99.90;;;;;;5311411;27;20088;-73
2023/05/08 02:47:22;;;;;;;43.05;29.67;;;9.50;99.90;;;;;;5312643;27;20039;-74
2023/05/08 02:49:56;;;;;;;96.40;32.13;;;9.20;99.90;;;;;;5312711;27;20130;-73
2023/05/08 02:52:31;;;;;;;32.20;28.90;;;8.80;99.90;;;;;;5312283;27;20043;-72
2023/05/08 02:55:35;;;;;;;32.28;29.35;;;8.60;99.90;;;;;;5312367;27;20051;-73
2023/05/08 02:58:33;;;;;;;44.75;29.35;;;8.70;99.90;;;;;;5312569;27;20023;-73
2023/05/08 03:01:19;;;;;;;40.03;30.15;;;8.90;99.90;;;;;;5312369;27;20023;-74
2023/05/08 03:04:00;;;;;;;41.10;28.00;;;9.00;99.90;;;;;;5312323;27;20027;-73
2023/05/08 03:06:41;;;;;;;52.83;29.45;;;8.50;99.90;;;;;;5312319;27;20025;-73
2023/05/08 03:09:20;;;;;;;32.47;29.05;;;8.50;99.90;;;;;;5312345;27;20065;-72
2023/05/08 03:11:59;;;;;;;56.75;29.02;;;8.70;99.90;;;;;;5312298;27;20027;-72
2023/05/08 03:14:34;;;;;;;48.13;31.27;;;8.50;99.90;;;;;;5312105;27;20102;-73
2023/05/08 03:17:07;;;;;;;32.75;28.90;;;8.50;99.90;;;;;;5311902;27;20424;-73
2023/05/08 03:19:41;;;;;;;33.20;26.30;;;8.60;99.90;;;;;;5311994;27;20026;-72
2023/05/08 03:22:15;;;;;;;33.10;24.52;;;8.30;99.90;;;;;;5311682;27;20424;-72
2023/05/08 03:24:47;;;;;;;27.65;24.95;;;8.20;99.90;;;;;;5310403;27;20047;-73
2023/05/08 03:27:19;;;;;;;32.83;29.75;;;8.30;99.90;;;;;;5311836;27;20042;-74
2023/05/08 03:29:52;;;;;;;29.02;25.70;;;8.40;99.90;;;;;;5310817;27;20080;-73
2023/05/08 03:32:26;;;;;;;26.95;24.85;;;8.10;99.90;;;;;;5311655;27;20042;-73
2023/05/08 03:34:59;;;;;;;27.38;25.38;;;8.30;99.90;;;;;;5311572;27;20072;-72
2023/05/08 03:37:30;;;;;;;27.60;25.52;;;8.30;99.90;;;;;;5311405;27;20462;-73
2023/05/08 03:40:01;;;;;;;28.13;26.23;;;8.40;99.90;;;;;;5311521;27;20065;-73
2023/05/08 03:42:32;;;;;;;27.30;25.40;;;8.70;99.90;;;;;;5311499;27;20033;-73
2023/05/08 03:45:05;;;;;;;27.05;24.98;;;8.90;99.90;;;;;;5311118;27;20068;-73
2023/05/08 03:47:36;;;;;;;26.42;24.52;;;8.90;99.90;;;;;;5311353;27;20420;-72
2023/05/08 03:50:08;;;;;;;27.77;25.77;;;9.00;99.90;;;;;;5310879;27;20079;-73
2023/05/08 03:52:39;;;;;;;25.15;23.27;;;8.80;99.90;;;;;;5310171;27;20039;-72
2023/05/08 03:55:10;;;;;;;26.10;24.17;;;9.10;99.90;;;;;;5311165;27;20696;-72
2023/05/08 03:58:14;;;;;;;27.08;24.95;;;9.20;99.90;;;;;;5309798;27;20031;-73
2023/05/08 04:01:16;;;;;;;43.28;39.25;;;9.20;99.90;;;;;;5308007;27;20046;-73
2023/05/08 04:04:03;;;;;;;34.78;31.30;;;9.40;99.90;;;;;;5293498;27;20382;-72
2023/05/08 04:06:48;;;;;;;35.70;32.25;;;9.20;99.90;;;;;;5311087;27;20039;-73
2023/05/08 04:09:26;;;;;;;35.15;31.98;;;9.30;99.90;;;;;;5310830;27;20679;-73
2023/05/08 04:12:08;;;;;;;37.00;33.47;;;9.50;99.90;;;;;;5310704;27;20027;-72
2023/05/08 04:14:52;;;;;;;34.72;31.45;;;9.60;99.90;;;;;;5310807;27;20027;-73
2023/05/08 04:17:52;;;;;;;45.33;40.38;;;9.60;99.90;;;;;;5309389;27;20019;-73
2023/05/08 04:20:26;;;;;;;45.42;40.72;;;9.50;99.90;;;;;;5307200;27;20047;-73
2023/05/08 04:22:58;;;;;;;45.25;40.60;;;9.60;99.90;;;;;;5310694;27;20436;-72
2023/05/08 04:25:31;;;;;;;57.58;50.47;;;9.60;99.90;;;;;;5310601;27;20031;-72
2023/05/08 04:28:02;;;;;;;50.50;45.03;;;9.80;99.90;;;;;;5310685;27;20043;-71
2023/05/08 04:30:34;;;;;;;50.25;44.83;;;9.80;99.90;;;;;;5310530;27;20035;-73
2023/05/08 04:33:05;;;;;;;74.40;59.35;;;10.00;99.90;;;;;;5310505;27;20043;-74
2023/05/08 04:35:35;;;;;;;52.30;46.60;;;10.00;99.90;;;;;;5310252;27;20023;-73
2023/05/08 04:38:06;;;;;;;52.78;46.05;;;10.10;99.90;;;;;;5310417;27;20544;-74
2023/05/08 04:40:37;;;;;;;50.80;45.55;;;10.10;99.90;;;;;;5310177;27;20023;-72
2023/05/08 04:43:08;;;;;;;44.67;39.90;;;10.10;99.90;;;;;;5310365;27;20023;-72
2023/05/08 04:45:39;;;;;;;50.67;45.75;;;10.10;99.90;;;;;;5310313;27;20102;-73
2023/05/08 04:48:10;;;;;;;47.70;42.92;;;10.30;99.90;;;;;;5310534;27;20390;-72
2023/05/08 04:50:41;;;;;;;48.90;43.97;;;10.30;99.90;;;;;;5310136;27;20110;-72
2023/05/08 04:53:12;;;;;;;51.28;46.08;;;10.50;99.90;;;;;;5310169;27;20076;-72
2023/05/08 04:55:43;;;;;;;52.00;46.75;;;10.50;99.90;;;;;;5310005;27;20478;-72
2023/05/08 04:58:14;;;;;;;59.95;53.83;;;10.70;99.90;;;;;;5310072;27;20065;-73
2023/05/08 05:00:44;;;;;;;59.22;53.25;;;10.90;99.90;;;;;;5309925;27;20069;-73
2023/05/08 05:03:15;;;;;;;59.80;53.90;;;11.00;99.90;;;;;;5309517;27;20031;-73
2023/05/08 05:05:46;;;;;;;59.40;53.70;;;11.10;99.90;;;;;;5310007;27;20023;-73
2023/05/08 05:08:17;;;;;;;52.20;47.30;;;11.10;99.90;;;;;;5309800;27;20015;-72
2023/05/08 05:10:48;;;;;;;55.65;50.42;;;11.30;99.90;;;;;;5309679;27;20033;-74
2023/05/08 05:13:19;;;;;;;69.22;62.13;;;11.40;99.90;;;;;;5310394;27;20139;-73
2023/05/08 05:15:53;;;;;;;59.05;53.20;;;11.40;99.90;;;;;;5309869;27;20030;-73
2023/05/08 05:18:23;;;;;;;53.38;48.70;;;11.50;99.90;;;;;;5309942;27;20066;-73
2023/05/08 05:20:57;;;;;;;46.42;42.42;;;11.70;99.90;;;;;;5309668;27;20498;-73
2023/05/08 05:23:30;;;;;;;46.25;42.65;;;11.80;99.90;;;;;;5309781;27;20055;-74
2023/05/08 05:26:01;;;;;;;46.58;42.45;;;12.10;99.90;;;;;;5309773;27;20060;-73
2023/05/08 05:28:31;;;;;;;43.33;39.60;;;12.20;99.90;;;;;;5294100;27;20130;-72
2023/05/08 05:31:03;;;;;;;46.90;43.00;;;12.20;99.90;;;;;;5267725;28;20063;-72
2023/05/08 05:33:34;;;;;;;46.35;42.70;;;12.40;99.90;;;;;;5267339;28;20566;-73
2023/05/08 05:36:05;;;;;;;41.63;37.95;;;12.70;99.90;;;;;;5267392;28;20099;-74
2023/05/08 05:38:36;;;;;;;41.85;37.88;;;12.70;99.90;;;;;;5267504;28;20029;-73
2023/05/08 05:41:06;;;;;;;43.65;39.95;;;12.70;99.90;;;;;;5267995;28;20031;-73
2023/05/08 05:43:37;;;;;;;44.17;40.35;;;12.70;99.90;;;;;;5267269;28;20024;-72
2023/05/08 05:46:08;;;;;;;46.33;42.38;;;12.90;99.90;;;;;;5267344;28;20093;-72
2023/05/08 05:48:39;;;;;;;46.10;42.50;;;12.90;99.90;;;;;;5267154;28;20031;-73
2023/05/08 05:51:10;;;;;;;42.05;38.83;;;13.00;99.90;;;;;;5266964;28;20020;-74
2023/05/08 05:53:42;;;;;;;43.25;39.50;;;13.00;99.90;;;;;;5267148;28;20043;-73
2023/05/08 05:56:13;;;;;;;47.28;43.35;;;13.00;99.90;;;;;;5267174;28;20110;-74
2023/05/08 05:58:44;;;;;;;45.38;41.50;;;13.10;99.90;;;;;;5267332;28;20755;-73
2023/05/08 06:01:15;;;;;;;36.95;33.60;;;13.30;99.90;;;;;;5267123;28;20059;-73
2023/05/08 06:03:46;;;;;;;33.63;30.92;;;13.20;99.90;;;;;;5267057;28;20043;-73
2023/05/08 06:06:17;;;;;;;32.20;29.48;;;13.40;99.90;;;;;;5267128;28;20539;-73
2023/05/08 06:08:48;;;;;;;32.25;29.10;;;13.70;99.90;;;;;;5266991;28;20115;-74
2023/05/08 06:11:19;;;;;;;33.50;30.73;;;13.70;99.90;;;;;;5266836;28;20024;-73
2023/05/08 06:13:50;;;;;;;30.85;28.02;;;13.80;99.90;;;;;;5266819;28;20532;-73
2023/05/08 06:16:21;;;;;;;30.40;27.88;;;14.00;99.90;;;;;;5270494;28;20048;-73
2023/05/08 06:18:52;;;;;;;32.08;28.98;;;13.80;99.90;;;;;;5270710;28;20023;-72
2023/05/08 06:21:23;;;;;;;33.15;30.13;;;13.70;99.90;;;;;;5270673;28;20021;-73
2023/05/08 06:23:54;;;;;;;30.10;27.35;;;14.00;99.90;;;;;;5270659;28;20064;-72
2023/05/08 06:26:25;;;;;;;30.75;27.95;;;14.20;99.90;;;;;;5270878;28;20039;-74
2023/05/08 06:28:56;;;;;;;30.73;27.98;;;14.30;99.90;;;;;;5270478;28;20036;-72
2023/05/08 06:31:27;;;;;;;32.25;29.23;;;14.40;99.90;;;;;;5270413;28;20089;-72
2023/05/08 06:33:58;;;;;;;28.80;26.42;;;14.40;99.90;;;;;;5270563;28;20027;-72
2023/05/08 06:36:29;;;;;;;29.75;27.05;;;14.50;99.90;;;;;;5270893;28;20824;-72
2023/05/08 06:38:59;;;;;;;30.33;27.52;;;14.50;99.90;;;;;;5270587;28;20086;-73
2023/05/08 06:41:30;;;;;;;32.35;29.85;;;14.50;99.90;;;;;;5270451;28;20048;-73
2023/05/08 06:44:01;;;;;;;31.80;29.23;;;14.60;99.90;;;;;;5270442;28;20056;-72
2023/05/08 06:46:32;;;;;;;30.88;27.90;;;14.80;99.90;;;;;;5270291;28;20027;-72
2023/05/08 06:49:03;;;;;;;29.70;27.23;;;14.90;99.90;;;;;;5270252;28;20659;-73
2023/05/08 06:51:38;;;;;;;26.15;23.75;;;15.20;99.90;;;;;;5270063;28;20127;-73
2023/05/08 06:54:09;;;;;;;26.92;24.42;;;15.10;99.90;;;;;;5269984;28;20028;-72
2023/05/08 06:56:39;;;;;;;27.55;24.95;;;15.30;99.90;;;;;;5269010;28;20020;-74
2023/05/08 06:59:10;;;;;;;26.63;24.23;;;15.40;99.90;;;;;;5270189;28;20466;-73
2023/05/08 07:01:41;;;;;;;28.05;25.83;;;15.50;99.90;;;;;;5269913;28;20027;-74
2023/05/08 07:04:12;;;;;;;28.63;25.92;;;15.60;99.90;;;;;;5269945;28;20429;-73
2023/05/08 07:06:43;;;;;;;28.35;25.13;;;15.60;99.90;;;;;;5269870;28;20475;-73
2023/05/08 07:09:15;;;;;;;29.40;26.70;;;15.30;99.90;;;;;;5269944;28;20031;-73
2023/05/08 07:11:46;;;;;;;31.13;28.27;;;15.50;99.90;;;;;;5269758;28;20040;-72
2023/05/08 07:14:17;;;;;;;29.98;26.98;;;15.70;99.90;;;;;;5269962;28;20016;-74
2023/05/08 07:16:48;;;;;;;31.10;28.25;;;15.80;99.90;;;;;;5269638;28;20043;-73
2023/05/08 07:19:19;;;;;;;31.90;28.92;;;15.80;99.90;;;;;;5269579;28;20032;-72
2023/05/08 07:21:50;;;;;;;29.60;26.88;;;16.10;99.90;;;;;;5269437;28;20024;-74
2023/05/08 07:24:21;;;;;;;29.95;26.98;;;16.10;99.90;;;;;;5269441;28;20087;-74
2023/05/08 07:26:52;;;;;;;31.05;27.98;;;16.40;99.90;;;;;;5269274;28;20138;-72
2023/05/08 07:29:23;;;;;;;28.73;26.25;;;16.50;99.90;;;;;;5269551;28;20028;-73
2023/05/08 07:31:54;;;;;;;28.38;25.75;;;16.30;99.90;;;;;;5269293;28;20035;-74
2023/05/08 07:34:25;;;;;;;29.08;26.55;;;16.50;99.90;;;;;;5269345;28;20518;-74
2023/05/08 07:36:55;;;;;;;30.42;27.33;;;16.50;99.90;;;;;;5269428;28;20012;-72
2023/05/08 07:39:26;;;;;;;27.17;24.92;;;16.70;99.90;;;;;;5267762;28;20085;-74
2023/05/08 07:41:57;;;;;;;26.00;23.45;;;16.70;99.90;;;;;;5269305;28;20032;-72
2023/05/08 07:44:31;;;;;;;25.45;22.92;;;16.70;99.90;;;;;;5269237;28;20019;-73
2023/05/08 07:47:02;;;;;;;22.08;20.27;;;16.90;99.90;;;;;;5269470;28;20103;-72
2023/05/08 07:49:33;;;;;;;23.27;21.20;;;16.90;99.90;;;;;;5269264;28;20009;-72
2023/05/08 07:52:04;;;;;;;23.15;20.73;;;16.90;99.90;;;;;;5268930;28;20054;-74
2023/05/08 07:54:35;;;;;;;22.17;19.90;;;16.80;99.90;;;;;;5268882;28;20481;-74
2023/05/08 07:57:06;;;;;;;19.23;17.50;;;17.00;99.90;;;;;;5268886;28;20119;-72
2023/05/08 07:59:37;;;;;;;19.55;17.65;;;17.10;99.90;;;;;;5268766;28;20030;-72
2023/05/08 08:02:07;;;;;;;19.67;17.77;;;17.20;99.90;;;;;;5268698;28;20032;-72
2023/05/08 08:04:38;;;;;;;18.17;16.67;;;17.30;99.90;;;;;;5268730;28;20118;-74
2023/05/08 08:07:09;;;;;;;20.38;18.25;;;17.30;99.90;;;;;;5268767;28;20031;-74
2023/05/08 08:09:40;;;;;;;19.45;17.70;;;17.40;99.90;;;;;;5268309;28;20020;-72
2023/05/08 08:12:11;;;;;;;19.70;17.75;;;17.60;99.90;;;;;;5267350;28;20086;-74
2023/05/08 08:14:42;;;;;;;19.83;18.23;;;17.80;99.90;;;;;;5268398;28;20096;-73
2023/05/08 08:17:13;;;;;;;19.42;17.70;;;17.90;99.90;;;;;;5268499;28;20020;-73
2023/05/08 08:19:44;;;;;;;21.73;19.90;;;17.80;99.90;;;;;;5268322;28;20159;-73
2023/05/08 08:22:15;;;;;;;21.92;20.23;;;17.70;99.90;;;;;;5268226;28;20497;-72
2023/05/08 08:24:46;;;;;;;20.50;18.90;;;17.90;99.90;;;;;;5268261;28;20044;-72
2023/05/08 08:27:17;;;;;;;21.95;20.35;;;17.90;99.90;;;;;;5268418;28;20479;-72
2023/05/08 08:29:48;;;;;;;22.55;20.40;;;18.10;99.90;;;;;;5268217;28;20134;-74
2023/05/08 08:32:19;;;;;;;22.58;20.15;;;18.00;99.90;;;;;;5268130;28;20036;-73
2023/05/08 08:34:50;;;;;;;22.02;20.33;;;18.10;99.90;;;;;;5268112;28;20027;-74
2023/05/08 08:37:21;;;;;;;26.15;24.25;;;18.10;99.90;;;;;;5267498;28;20028;-73
2023/05/08 08:39:52;;;;;;;23.00;21.13;;;18.20;99.90;;;;;;5268060;28;20458;-72
2023/05/08 08:42:23;;;;;;;25.67;23.65;;;18.30;99.90;;;;;;5268218;28;20009;-72
2023/05/08 08:44:57;;;;;;;26.20;24.23;;;18.30;99.90;;;;;;5268118;28;20076;-72
2023/05/08 08:47:40;;;;;;;23.75;21.77;;;18.30;99.90;;;;;;5268042;28;20020;-72
2023/05/08 08:50:13;;;;;;;27.05;25.25;;;18.30;99.90;;;;;;5267785;28;20036;-72
2023/05/08 08:52:44;;;;;;;27.80;25.95;;;18.40;99.90;;;;;;5267853;28;20478;-74
2023/05/08 08:55:17;;;;;;;25.92;23.83;;;18.40;99.90;;;;;;5268109;28;20028;-74
2023/05/08 08:58:25;;;;;;;25.73;23.73;;;18.80;99.90;;;;;;5266745;28;20084;-72
2023/05/08 09:00:57;;;;;;;26.98;25.02;;;18.60;99.90;;;;;;5267655;28;20020;-73
2023/05/08 09:03:28;;;;;;;27.80;25.63;;;18.80;99.90;;;;;;5267687;28;20031;-72
2023/05/08 09:06:02;;;;;;;26.10;24.02;;;18.20;99.90;;;;;;5267888;28;20049;-72
2023/05/08 09:08:34;;;;;;;24.92;23.15;;;18.70;99.90;;;;;;5267605;28;20702;-73
2023/05/08 09:11:05;;;;;;;26.20;24.20;;;18.80;99.90;;;;;;5267746;28;20402;-72
2023/05/08 09:13:36;;;;;;;25.88;23.95;;;18.70;99.90;;;;;;5267445;28;20036;-74
2023/05/08 09:16:07;;;;;;;26.05;24.20;;;18.90;99.90;;;;;;5267539;28;20020;-73
2023/05/08 09:18:38;;;;;;;25.70;23.75;;;18.70;99.90;;;;;;5266146;28;20024;-73
2023/05/08 09:21:09;;;;;;;23.02;21.30;;;18.70;99.90;;;;;;5267326;28;20032;-72
2023/05/08 09:23:59;;;;;;;22.42;20.42;;;18.80;99.90;;;;;;5267187;28;20052;-73
2023/05/08 09:26:36;;;;;;;21.75;20.25;;;18.90;99.90;;;;;;5267531;28;20479;-73
2023/05/08 09:29:18;;;;;;;21.90;20.23;;;19.00;99.90;;;;;;5267633;28;20032;-74
2023/05/08 09:31:52;;;;;;;25.20;23.08;;;19.10;99.90;;;;;;5267183;28;20046;-73
2023/05/08 09:34:29;;;;;;;24.02;22.05;;;19.20;99.90;;;;;;5267329;28;20035;-73
2023/05/08 09:37:08;;;;;;;20.88;19.13;;;19.10;99.90;;;;;;5267344;28;20028;-74
2023/05/08 09:39:42;;;;;;;22.83;20.90;;;19.10;99.90;;;;;;5267187;28;20495;-74
2023/05/08 09:42:13;;;;;;;21.67;20.10;;;19.30;99.90;;;;;;5267401;28;20097;-72
2023/05/08 09:44:45;;;;;;;22.63;20.88;;;19.20;99.90;;;;;;5267624;28;20057;-74
2023/05/08 09:47:18;;;;;;;21.08;19.55;;;19.60;99.90;;;;;;5267183;28;20059;-73
2023/05/08 09:50:01;;;;;;;21.45;20.00;;;19.40;99.90;;;;;;5270155;28;20024;-74
2023/05/08 09:52:33;;;;;;;20.17;18.40;;;19.70;99.90;;;;;;5271333;28;20061;-72
2023/05/08 09:55:06;;;;;;;20.48;18.70;;;19.40;99.90;;;;;;5271494;28;20032;-75
2023/05/08 09:57:40;;;;;;;21.95;20.35;;;19.80;99.90;;;;;;5271139;28;20023;-73
2023/05/08 10:00:12;;;;;;;21.00;19.45;;;19.80;99.90;;;;;;5271294;28;20089;-72
2023/05/08 10:02:57;;;;;;;20.15;18.63;;;20.00;99.90;;;;;;5269783;28;20017;-72
2023/05/08 10:05:31;;;;;;;21.25;19.70;;;19.70;99.90;;;;;;5275174;28;20027;-74
2023/05/08 10:08:22;;;;;;;21.55;19.65;;;19.30;99.90;;;;;;5279385;28;20030;-72
2023/05/08 10:10:53;;;;;;;21.65;19.83;;;19.70;99.90;;;;;;5282104;28;20020;-73
2023/05/08 10:13:24;;;;;;;20.65;19.05;;;19.60;99.90;;;;;;5282877;28;20100;-74
2023/05/08 10:15:56;;;;;;;21.70;20.20;;;19.80;99.90;;;;;;5270746;28;20024;-74
2023/05/08 10:18:33;;;;;;;24.35;22.67;;;19.80;99.90;;;;;;5270972;28;20028;-74
2023/05/08 10:21:06;;;;;;;24.50;22.73;;;19.70;99.90;;;;;;5270662;28;20090;-74
2023/05/08 10:23:38;;;;;;;24.25;22.35;;;19.40;99.90;;;;;;5270648;28;20542;-73
2023/05/08 10:26:15;;;;;;;26.05;24.10;;;20.10;99.90;;;;;;5270625;28;20051;-73
2023/05/08 10:29:05;;;;;;;23.45;21.55;;;19.90;99.90;;;;;;5270711;28;20050;-73
2023/05/08 10:31:42;;;;;;;26.35;24.45;;;20.30;99.90;;;;;;5270630;28;20114;-73
2023/05/08 10:34:19;;;;;;;28.27;26.13;;;20.00;99.90;;;;;;5270553;28;20059;-74
2023/05/08 10:36:51;;;;;;;27.02;25.17;;;20.00;99.90;;;;;;5270403;28;20034;-73
2023/05/08 10:39:24;;;;;;;27.15;25.17;;;20.10;99.90;;;;;;5270246;28;20024;-72
2023/05/08 10:41:55;;;;;;;25.20;23.25;;;20.10;99.90;;;;;;5270240;28;20031;-72
2023/05/08 10:44:30;;;;;;;26.92;25.10;;;20.20;99.90;;;;;;5270435;28;20447;-72
2023/05/08 10:47:12;;;;;;;26.30;24.40;;;20.00;99.90;;;;;;5270108;28;20060;-72
2023/05/08 10:49:47;;;;;;;26.95;24.95;;;19.40;99.90;;;;;;5270283;28;20032;-72
2023/05/08 10:52:28;;;;;;;24.90;23.02;;;19.80;99.90;;;;;;5269946;28;20044;-73
2023/05/08 10:55:16;;;;;;;25.73;23.48;;;19.50;99.90;;;;;;5270209;28;20032;-73
2023/05/08 10:58:15;;;;;;;28.13;25.70;;;19.90;99.90;;;;;;5270375;28;20016;-72
2023/05/08 11:00:52;;;;;;;27.02;25.08;;;20.10;99.90;;;;;;5268434;28;20527;-72
2023/05/08 11:03:27;;;;;;;26.08;24.15;;;20.20;99.90;;;;;;5270269;28;20021;-72
2023/05/08 11:05:59;;;;;;;29.45;27.30;;;20.50;99.90;;;;;;5270117;28;20534;-71
2023/05/08 11:08:31;;;;;;;27.63;25.73;;;20.50;99.90;;;;;;5269905;28;20012;-74
2023/05/08 11:11:20;;;;;;;27.33;25.45;;;20.40;99.90;;;;;;5269883;28;20027;-72
2023/05/08 11:14:06;;;;;;;24.52;22.63;;;20.30;99.90;;;;;;5270253;28;20040;-74
2023/05/08 11:17:02;;;;;;;24.17;22.48;;;20.50;99.90;;;;;;5269688;28;20086;-72
2023/05/08 11:19:34;;;;;;;25.38;23.58;;;20.60;99.90;;;;;;5269717;28;20379;-74
2023/05/08 11:22:15;;;;;;;26.48;24.58;;;20.50;99.90;;;;;;5269357;28;20085;-73
2023/05/08 11:24:52;;;;;;;26.67;24.75;;;20.60;99.90;;;;;;5269231;28;20048;-73
2023/05/08 11:27:48;;;;;;;27.25;25.45;;;20.80;99.90;;;;;;5270885;28;20130;-72
2023/05/08 11:30:31;;;;;;;27.27;25.10;;;20.00;99.90;;;;;;5290654;28;20023;-72
2023/05/08 11:33:07;;;;;;;28.85;26.98;;;20.20;99.90;;;;;;5289629;28;20174;-74
2023/05/08 11:35:51;;;;;;;27.38;25.73;;;20.40;99.90;;;;;;5278359;27;20379;-72
2023/05/08 11:38:37;;;;;;;29.98;27.75;;;20.80;99.90;;;;;;5285555;28;20760;-74
2023/05/08 11:41:08;;;;;;;26.33;24.30;;;20.70;99.90;;;;;;5289352;28;20030;-71
2023/05/08 11:44:03;;;;;;;30.38;28.33;;;20.70;99.90;;;;;;5281058;28;20031;-72
2023/05/08 11:46:49;;;;;;;26.05;24.38;;;20.80;99.90;;;;;;5277501;28;20032;-72
2023/05/08 11:49:25;;;;;;;27.50;25.58;;;20.80;99.90;;;;;;5272646;28;20024;-72
2023/05/08 11:51:58;;;;;;;28.48;26.38;;;20.90;99.90;;;;;;5284183;28;20032;-74
2023/05/08 11:54:30;;;;;;;26.65;24.58;;;20.70;99.90;;;;;;5289739;28;20489;-74
2023/05/08 11:57:01;;;;;;;26.25;24.48;;;20.90;99.90;;;;;;5288679;28;20425;-71
2023/05/08 11:59:36;;;;;;;27.85;25.67;;;20.90;99.90;;;;;;5270423;28;20031;-74
2023/05/08 12:02:07;;;;;;;28.75;26.83;;;20.80;99.90;;;;;;5277382;28;20463;-72
2023/05/08 12:04:45;;;;;;;28.35;26.05;;;20.80;99.90;;;;;;5289698;28;20039;-72
2023/05/08 12:07:17;;;;;;;30.77;28.65;;;20.80;99.90;;;;;;5289690;28;20379;-72
2023/05/08 12:09:48;;;;;;;25.55;23.73;;;20.90;99.90;;;;;;5289747;28;20027;-72
2023/05/08 12:12:19;;;;;;;22.75;20.98;;;20.20;99.90;;;;;;5289094;28;20680;-73
2023/05/08 12:14:50;;;;;;;20.73;19.25;;;20.10;99.90;;;;;;5289680;28;20416;-73
2023/05/08 12:17:21;;;;;;;24.05;22.33;;;19.50;99.90;;;;;;5289787;28;20475;-71
2023/05/08 12:19:55;;;;;;;23.42;21.17;;;20.00;99.90;;;;;;5289646;28;20076;-72
2023/05/08 12:22:26;;;;;;;24.70;22.70;;;20.50;99.90;;;;;;5289736;28;20390;-74
2023/05/08 12:24:57;;;;;;;32.03;29.38;;;20.10;99.90;;;;;;5289360;28;20058;-72
2023/05/08 12:27:28;;;;;;;28.80;26.77;;;20.10;99.90;;;;;;5289458;28;20088;-72
2023/05/08 12:29:59;;;;;;;31.45;29.15;;;20.20;99.90;;;;;;5289267;28;20034;-71
2023/05/08 12:32:30;;;;;;;32.95;30.75;;;20.50;99.90;;;;;;5289217;28;20028;-72
2023/05/08 12:35:01;;;;;;;29.95;27.77;;;20.20;99.90;;;;;;5289152;28;20478;-72
2023/05/08 12:37:32;;;;;;;32.70;30.30;;;20.10;99.90;;;;;;5289139;28;20029;-72
2023/05/08 12:40:04;;;;;;;33.35;30.73;;;20.30;99.90;;;;;;5289074;28;20024;-72
2023/05/08 12:43:04;;;;;;;29.45;27.17;;;20.50;99.90;;;;;;5289082;28;20031;-74
2023/05/08 12:45:41;;;;;;;32.42;29.48;;;20.50;99.90;;;;;;5279871;28;20521;-73
2023/05/08 12:48:16;;;;;;;27.77;25.33;;;20.50;99.90;;;;;;5289002;28;20027;-74
2023/05/08 12:50:47;;;;;;;28.60;26.08;;;20.60;99.90;;;;;;5288826;28;20032;-74
2023/05/08 12:53:20;;;;;;;27.75;25.70;;;20.60;99.90;;;;;;5288821;28;20367;-74
2023/05/08 12:55:56;;;;;;;29.10;26.48;;;20.40;99.90;;;;;;5288790;28;20110;-73
2023/05/08 12:58:32;;;;;;;25.05;23.00;;;20.10;99.90;;;;;;5288760;28;20023;-74
2023/05/08 13:01:12;;;;;;;28.85;26.80;;;20.30;99.90;;;;;;5288840;28;20116;-73
2023/05/08 13:03:42;;;;;;;27.38;25.42;;;20.20;99.90;;;;;;5288871;28;20051;-74
2023/05/08 13:06:21;;;;;;;30.15;27.80;;;19.70;99.90;;;;;;5288529;28;20473;-74